Time;durP1;ratioP1;P1;durP2;ratioP2;P2;SDS_P1;SDS_P2;PMS_P1;PMS_P2;Temp;Humidity;BMP_temperature;BMP_pressure;BME280_temperature;BME280_humidity;BME280_pressure;Samples;Min_cycle;Max_cycle;Signal;HPM_P1;HPM_P2
2021/03/14 00:00:37;;;;;;;8.95;2.05;;;6.60;99.90;;;;;;5072461;28;20025;-75
2021/03/14 00:03:05;;;;;;;17.10;1.83;;;6.60;99.90;;;;;;5072049;28;20040;-75
2021/03/14 00:05:31;;;;;;;10.93;2.72;;;6.60;99.90;;;;;;5080764;28;20026;-75
2021/03/14 00:07:57;;;;;;;14.25;2.33;;;6.60;99.90;;;;;;5071282;28;20024;-75
2021/03/14 00:10:23;;;;;;;11.85;1.38;;;6.70;99.90;;;;;;5072645;28;20032;-75
2021/03/14 00:12:49;;;;;;;14.77;1.75;;;6.70;99.90;;;;;;5070735;28;20131;-76
2021/03/14 00:15:15;;;;;;;22.35;1.83;;;6.60;99.90;;;;;;5070549;28;20459;-76
2021/03/14 00:17:41;;;;;;;11.40;2.10;;;6.60;99.90;;;;;;5070893;28;20039;-76
2021/03/14 00:20:08;;;;;;;10.73;2.20;;;6.60;99.90;;;;;;5072435;28;20381;-76
2021/03/14 00:22:33;;;;;;;18.63;2.30;;;6.60;99.90;;;;;;5073715;28;20035;-76
2021/03/14 00:24:59;;;;;;;9.77;1.77;;;6.60;99.90;;;;;;5072320;28;20020;-76
2021/03/14 00:27:26;;;;;;;10.75;2.70;;;6.70;99.90;;;;;;5071790;28;20512;-76
2021/03/14 00:29:52;;;;;;;18.17;3.20;;;6.70;99.90;;;;;;5072437;28;20025;-76
2021/03/14 00:32:18;;;;;;;13.95;1.90;;;6.80;99.90;;;;;;5072492;28;20024;-76
2021/03/14 00:34:43;;;;;;;7.05;1.35;;;6.90;99.90;;;;;;5071577;28;20393;-75
2021/03/14 00:37:10;;;;;;;15.70;1.80;;;6.90;99.90;;;;;;5071775;28;20025;-75
2021/03/14 00:39:37;;;;;;;13.88;1.60;;;6.90;99.90;;;;;;5073805;28;20449;-75
2021/03/14 00:42:03;;;;;;;7.88;1.38;;;6.80;99.90;;;;;;5071608;28;20101;-76
2021/03/14 00:44:28;;;;;;;16.00;1.95;;;6.80;99.90;;;;;;5072369;28;20032;-75
2021/03/14 00:46:54;;;;;;;12.43;1.95;;;6.80;99.90;;;;;;5071492;28;20024;-75
2021/03/14 00:49:21;;;;;;;20.80;2.08;;;6.90;99.90;;;;;;5070904;28;20055;-76
2021/03/14 00:51:47;;;;;;;7.22;1.33;;;6.90;99.90;;;;;;5072602;28;20036;-75
2021/03/14 00:54:12;;;;;;;8.05;1.63;;;6.90;99.90;;;;;;5072328;28;20031;-75
2021/03/14 00:56:38;;;;;;;12.77;1.63;;;6.80;99.90;;;;;;5071363;28;20024;-75
2021/03/14 00:59:04;;;;;;;10.50;1.33;;;6.90;99.90;;;;;;5073221;28;20376;-75
2021/03/14 01:01:30;;;;;;;10.82;2.72;;;6.90;99.90;;;;;;5071334;28;20032;-76
2021/03/14 01:03:56;;;;;;;19.25;2.53;;;6.90;99.90;;;;;;5071378;28;20032;-75
2021/03/14 01:06:22;;;;;;;12.43;2.05;;;6.90;99.90;;;;;;5072563;28;20021;-75
2021/03/14 01:08:49;;;;;;;20.15;2.83;;;6.90;99.90;;;;;;5072379;28;20035;-76
2021/03/14 01:11:14;;;;;;;8.15;2.55;;;6.90;99.90;;;;;;5073227;28;20029;-75
2021/03/14 01:13:40;;;;;;;12.82;1.38;;;6.80;99.90;;;;;;5072015;28;20416;-76
2021/03/14 01:16:06;;;;;;;13.05;2.67;;;6.80;99.90;;;;;;5070811;28;20032;-75
2021/03/14 01:18:31;;;;;;;12.20;1.25;;;6.80;99.90;;;;;;5070871;28;20036;-75
2021/03/14 01:20:57;;;;;;;11.93;1.15;;;6.80;99.90;;;;;;5072844;28;20396;-74
2021/03/14 01:23:23;;;;;;;18.00;2.13;;;6.90;99.90;;;;;;5071465;28;20132;-74
2021/03/14 01:25:49;;;;;;;11.60;1.83;;;6.90;99.90;;;;;;5069631;28;20546;-75
2021/03/14 01:28:14;;;;;;;14.68;2.97;;;7.00;99.90;;;;;;5070946;28;20086;-75
2021/03/14 01:30:40;;;;;;;9.48;1.52;;;7.00;99.90;;;;;;5072016;28;20451;-75
2021/03/14 01:33:05;;;;;;;11.05;1.73;;;7.00;99.90;;;;;;5071295;28;20028;-75
2021/03/14 01:35:31;;;;;;;8.68;1.98;;;7.00;99.90;;;;;;5070777;28;20127;-74
2021/03/14 01:37:57;;;;;;;11.98;1.95;;;7.00;99.90;;;;;;5071359;28;20044;-75
2021/03/14 01:40:23;;;;;;;15.05;1.70;;;6.90;99.90;;;;;;5072295;28;20121;-76
2021/03/14 01:42:49;;;;;;;14.25;3.15;;;6.90;99.90;;;;;;5070539;28;20035;-76
2021/03/14 01:45:16;;;;;;;16.08;1.98;;;6.90;99.90;;;;;;5071537;28;20119;-76
2021/03/14 01:47:47;;;;;;;12.00;2.35;;;6.90;99.90;;;;;;5070187;28;20021;-76
2021/03/14 01:50:20;;;;;;;9.80;1.33;;;6.90;99.90;;;;;;5071831;28;20033;-76
2021/03/14 01:52:46;;;;;;;17.75;2.58;;;6.80;99.90;;;;;;5072288;28;20040;-76
2021/03/14 01:55:14;;;;;;;10.07;1.40;;;6.80;99.90;;;;;;5069739;28;20488;-76
2021/03/14 01:57:40;;;;;;;8.07;1.77;;;6.80;99.90;;;;;;5070717;28;20024;-76
2021/03/14 02:00:09;;;;;;;13.93;2.28;;;6.80;99.90;;;;;;5071504;28;20052;-76
2021/03/14 02:02:35;;;;;;;14.25;1.63;;;6.80;99.90;;;;;;5070111;28;20037;-76
2021/03/14 02:05:01;;;;;;;14.68;1.77;;;6.70;99.90;;;;;;5071835;28;20533;-76
2021/03/14 02:07:27;;;;;;;14.00;2.35;;;6.70;99.90;;;;;;5071462;28;20085;-76
2021/03/14 02:09:53;;;;;;;8.25;1.45;;;6.70;99.90;;;;;;5071592;28;20380;-76
2021/03/14 02:12:22;;;;;;;13.93;2.17;;;6.70;99.90;;;;;;5070532;28;20016;-76
2021/03/14 02:14:52;;;;;;;21.52;2.78;;;6.70;99.90;;;;;;5071450;28;20381;-76
2021/03/14 02:17:23;;;;;;;19.02;3.08;;;6.60;99.90;;;;;;5071553;28;20032;-76
2021/03/14 02:19:55;;;;;;;16.38;1.88;;;6.60;99.90;;;;;;5070941;28;20032;-76
2021/03/14 02:22:22;;;;;;;6.18;1.13;;;6.50;99.90;;;;;;5071219;28;20036;-76
2021/03/14 02:24:57;;;;;;;15.27;2.35;;;6.50;99.90;;;;;;5071537;28;20020;-76
2021/03/14 02:27:23;;;;;;;10.07;1.83;;;6.50;99.90;;;;;;5062490;28;20064;-76
2021/03/14 02:29:49;;;;;;;11.85;1.73;;;6.50;99.90;;;;;;5070884;28;20115;-76
2021/03/14 02:32:18;;;;;;;14.80;2.45;;;6.50;99.90;;;;;;5071589;28;20060;-76
2021/03/14 02:34:51;;;;;;;10.38;1.77;;;6.30;99.90;;;;;;5071019;28;20025;-76
2021/03/14 02:37:19;;;;;;;20.23;2.85;;;6.30;99.90;;;;;;5070480;28;20048;-75
2021/03/14 02:39:45;;;;;;;15.45;1.85;;;6.30;99.90;;;;;;5073679;28;20031;-76
2021/03/14 02:42:12;;;;;;;11.45;1.42;;;6.30;99.90;;;;;;5074264;28;20481;-76
2021/03/14 02:44:43;;;;;;;16.25;2.60;;;6.40;99.90;;;;;;5073229;28;20024;-75
2021/03/14 02:47:10;;;;;;;13.05;1.65;;;6.30;99.90;;;;;;5075104;28;20060;-76
2021/03/14 02:49:37;;;;;;;14.80;2.75;;;6.30;99.90;;;;;;5072712;28;20107;-76
2021/03/14 02:52:06;;;;;;;12.32;1.65;;;6.30;99.90;;;;;;5073392;28;20154;-76
2021/03/14 02:54:37;;;;;;;14.93;2.53;;;6.20;99.90;;;;;;5073335;28;20374;-76
2021/03/14 02:57:04;;;;;;;28.00;2.03;;;6.30;99.90;;;;;;5071455;28;20028;-76
2021/03/14 02:59:31;;;;;;;16.58;3.38;;;6.30;99.90;;;;;;5075048;28;20056;-76
2021/03/14 03:01:57;;;;;;;18.17;1.85;;;6.30;99.90;;;;;;5073696;28;20064;-76
2021/03/14 03:04:25;;;;;;;15.80;1.67;;;6.20;99.90;;;;;;5074939;28;20081;-76
2021/03/14 03:06:53;;;;;;;;;;;6.30;99.90;;;;;;5075759;28;20389;-76
2021/03/14 03:09:19;;;;;;;;;;;6.30;99.90;;;;;;5075073;28;19912;-75
2021/03/14 03:11:48;;;;;;;14.63;2.03;;;6.30;99.90;;;;;;5074168;28;20061;-75
2021/03/14 03:14:16;;;;;;;21.42;2.58;;;6.30;99.90;;;;;;5074517;28;20036;-74
2021/03/14 03:16:45;;;;;;;6.22;1.35;;;6.30;99.90;;;;;;5068777;28;20103;-75
2021/03/14 03:19:14;;;;;;;22.20;2.60;;;6.30;99.90;;;;;;5075172;28;20029;-75
2021/03/14 03:21:41;;;;;;;17.20;1.98;;;6.20;99.90;;;;;;5074569;28;20488;-75
2021/03/14 03:24:08;;;;;;;9.38;1.73;;;6.20;99.90;;;;;;5072767;28;20021;-75
2021/03/14 03:26:37;;;;;;;11.95;1.38;;;6.30;99.90;;;;;;5072446;28;20048;-75
2021/03/14 03:29:04;;;;;;;12.02;2.08;;;6.30;99.90;;;;;;5071050;28;20559;-75
2021/03/14 03:31:29;;;;;;;9.07;1.40;;;6.30;99.90;;;;;;5073713;28;20096;-75
2021/03/14 03:33:55;;;;;;;16.25;2.05;;;6.30;99.90;;;;;;5073024;28;20112;-75
2021/03/14 03:36:21;;;;;;;14.75;1.98;;;6.40;99.90;;;;;;5072284;28;20036;-76
2021/03/14 03:38:46;;;;;;;14.32;1.80;;;6.50;99.90;;;;;;5071765;28;20036;-74
2021/03/14 03:41:15;;;;;;;4.82;1.33;;;6.40;99.90;;;;;;5073237;28;20392;-74
2021/03/14 03:43:41;;;;;;;22.45;2.88;;;6.50;99.90;;;;;;5073750;28;20020;-75
2021/03/14 03:46:10;;;;;;;15.93;1.77;;;6.50;99.90;;;;;;5072987;28;20032;-75
2021/03/14 03:48:43;;;;;;;11.02;1.30;;;6.50;99.90;;;;;;5072475;28;20066;-74
2021/03/14 03:51:10;;;;;;;10.70;1.73;;;6.50;99.90;;;;;;5072783;28;20021;-74
2021/03/14 03:53:38;;;;;;;13.27;2.60;;;6.60;99.90;;;;;;5073205;28;20020;-74
2021/03/14 03:56:04;;;;;;;5.80;1.40;;;6.60;99.90;;;;;;5074510;28;20031;-75
2021/03/14 03:58:31;;;;;;;11.77;2.40;;;6.60;99.90;;;;;;5073525;28;20035;-74
2021/03/14 04:00:58;;;;;;;6.68;1.80;;;6.70;99.90;;;;;;5073300;28;20090;-75
2021/03/14 04:03:24;;;;;;;12.45;1.83;;;6.70;99.90;;;;;;5073256;28;20060;-75
2021/03/14 04:05:55;;;;;;;6.40;1.48;;;6.70;99.90;;;;;;5072711;28;20033;-74
2021/03/14 04:08:22;;;;;;;15.30;1.88;;;6.70;99.90;;;;;;5073410;28;20025;-75
2021/03/14 04:10:48;;;;;;;7.03;1.50;;;6.60;99.90;;;;;;5069123;28;20086;-75
2021/03/14 04:13:16;;;;;;;12.35;2.53;;;6.70;99.90;;;;;;5071709;28;20064;-74
2021/03/14 04:15:41;;;;;;;13.35;1.77;;;6.60;99.90;;;;;;5073761;28;20021;-76
2021/03/14 04:18:08;;;;;;;14.35;1.58;;;6.70;99.90;;;;;;5074291;28;20040;-75
2021/03/14 04:20:37;;;;;;;5.78;1.27;;;6.70;99.90;;;;;;5073941;28;20024;-75
2021/03/14 04:23:06;;;;;;;9.38;1.75;;;6.70;99.90;;;;;;5071145;28;20111;-74
2021/03/14 04:25:32;;;;;;;17.70;1.52;;;6.70;99.90;;;;;;5071566;28;20032;-74
2021/03/14 04:28:00;;;;;;;5.30;1.80;;;6.70;99.90;;;;;;5072453;28;20485;-75
2021/03/14 04:30:27;;;;;;;8.98;2.67;;;6.70;99.90;;;;;;5067714;28;20036;-76
2021/03/14 04:32:54;;;;;;;6.70;1.38;;;6.50;99.90;;;;;;5071730;28;20031;-74
2021/03/14 04:35:21;;;;;;;8.98;1.23;;;6.40;99.90;;;;;;5068047;28;20037;-75
2021/03/14 04:37:47;;;;;;;7.05;2.08;;;6.10;99.90;;;;;;5073674;28;20099;-76
2021/03/14 04:40:14;;;;;;;10.13;2.47;;;6.00;99.90;;;;;;5073757;28;20040;-78
2021/03/14 04:42:44;;;;;;;2.50;1.20;;;5.90;99.90;;;;;;5073916;28;20040;-75
2021/03/14 04:45:11;;;;;;;8.05;2.40;;;6.00;99.90;;;;;;5073081;28;20638;-75
2021/03/14 04:47:41;;;;;;;8.40;1.85;;;5.80;99.90;;;;;;5072202;28;20044;-74
2021/03/14 04:50:12;;;;;;;3.30;1.40;;;5.70;99.90;;;;;;5071535;28;20153;-75
2021/03/14 04:52:39;;;;;;;5.90;1.58;;;5.70;99.90;;;;;;5073205;28;20025;-74
2021/03/14 04:55:08;;;;;;;14.05;1.38;;;5.70;99.90;;;;;;5073320;28;20040;-74
2021/03/14 04:57:36;;;;;;;4.88;1.63;;;5.70;99.90;;;;;;5073153;28;20451;-73
2021/03/14 05:00:05;;;;;;;9.95;2.00;;;5.70;99.90;;;;;;5072858;28;20032;-73
2021/03/14 05:02:32;;;;;;;7.18;1.58;;;5.80;99.90;;;;;;5070419;28;20031;-74
2021/03/14 05:05:00;;;;;;;15.90;2.35;;;5.70;99.90;;;;;;5071909;28;20079;-75
2021/03/14 05:07:28;;;;;;;13.10;2.83;;;5.70;99.90;;;;;;5071853;28;20469;-74
2021/03/14 05:09:54;;;;;;;8.02;2.10;;;5.60;99.90;;;;;;5071524;28;20028;-75
2021/03/14 05:12:21;;;;;;;4.75;1.65;;;5.50;99.90;;;;;;5071911;28;20032;-75
2021/03/14 05:14:49;;;;;;;3.55;1.70;;;5.40;99.90;;;;;;5072631;28;20023;-74
2021/03/14 05:17:15;;;;;;;7.97;1.75;;;5.50;99.90;;;;;;5071935;28;20028;-73
2021/03/14 05:19:41;;;;;;;4.57;1.40;;;5.50;99.90;;;;;;5071058;28;20387;-74
2021/03/14 05:22:07;;;;;;;19.40;2.63;;;5.50;99.90;;;;;;5071702;28;20028;-74
2021/03/14 05:24:33;;;;;;;6.75;1.77;;;5.50;99.90;;;;;;5072321;28;20029;-73
2021/03/14 05:27:01;;;;;;;4.68;1.50;;;5.50;99.90;;;;;;5071303;28;20120;-73
2021/03/14 05:29:27;;;;;;;8.93;2.15;;;5.50;99.90;;;;;;5071900;28;20032;-74
2021/03/14 05:31:57;;;;;;;5.85;1.60;;;5.50;99.90;;;;;;5071686;28;20086;-74
2021/03/14 05:34:23;;;;;;;7.90;2.88;;;5.50;99.90;;;;;;5072174;28;20028;-74
2021/03/14 05:36:49;;;;;;;9.65;1.90;;;5.50;99.90;;;;;;5070138;28;20047;-74
2021/03/14 05:39:15;;;;;;;11.55;2.15;;;5.50;99.90;;;;;;5069902;28;20068;-73
2021/03/14 05:41:43;;;;;;;9.85;1.85;;;5.60;99.90;;;;;;5072513;28;20024;-74
2021/03/14 05:44:10;;;;;;;10.20;2.53;;;5.60;99.90;;;;;;5071606;28;20075;-73
2021/03/14 05:46:36;;;;;;;10.13;3.63;;;5.60;99.90;;;;;;5070324;28;20542;-73
2021/03/14 05:49:06;;;;;;;9.45;2.08;;;5.70;99.90;;;;;;5070067;28;20020;-73
2021/03/14 05:51:35;;;;;;;5.22;2.25;;;5.80;99.90;;;;;;5068840;28;20087;-73
2021/03/14 05:54:01;;;;;;;9.57;3.00;;;5.90;99.90;;;;;;5072142;28;20021;-73
2021/03/14 05:56:28;;;;;;;15.50;2.28;;;5.90;99.90;;;;;;5072129;28;20028;-74
2021/03/14 05:58:55;;;;;;;10.02;1.83;;;5.90;99.90;;;;;;5072015;28;20127;-73
2021/03/14 06:01:28;;;;;;;13.27;2.95;;;6.00;99.90;;;;;;5071413;28;20051;-73
2021/03/14 06:03:58;;;;;;;15.68;1.80;;;5.90;99.90;;;;;;5066622;28;20061;-73
2021/03/14 06:06:24;;;;;;;6.32;2.33;;;6.00;99.90;;;;;;5071749;28;20028;-73
2021/03/14 06:08:53;;;;;;;16.13;2.45;;;6.00;99.90;;;;;;5072200;28;20028;-73
2021/03/14 06:11:19;;;;;;;12.18;2.17;;;6.00;99.90;;;;;;5072001;28;20389;-74
2021/03/14 06:13:45;;;;;;;8.98;1.95;;;6.00;99.90;;;;;;5060252;28;20029;-73
2021/03/14 06:16:11;;;;;;;11.57;2.95;;;6.00;99.90;;;;;;5061899;28;20102;-73
2021/03/14 06:18:37;;;;;;;15.77;2.00;;;6.10;99.90;;;;;;5070351;28;20075;-73
2021/03/14 06:21:19;;;;;;;12.77;1.83;;;6.10;99.90;;;;;;5076230;28;20028;-73
2021/03/14 06:24:02;;;;;;;13.02;2.03;;;6.10;99.90;;;;;;5069911;28;20025;-73
2021/03/14 06:26:38;;;;;;;14.73;2.28;;;6.20;99.90;;;;;;5076070;28;20045;-73
2021/03/14 06:29:18;;;;;;;15.75;2.65;;;6.20;99.90;;;;;;5073972;28;20408;-72
2021/03/14 06:31:46;;;;;;;9.60;2.10;;;6.30;99.90;;;;;;5073984;28;20029;-73
2021/03/14 06:34:36;;;;;;;10.40;2.93;;;6.30;99.90;;;;;;5072792;28;20028;-72
2021/03/14 06:37:12;;;;;;;12.05;1.75;;;6.30;99.90;;;;;;5066900;28;20434;-72
2021/03/14 06:39:41;;;;;;;9.30;2.10;;;6.40;99.90;;;;;;5072985;28;20033;-72
2021/03/14 06:42:07;;;;;;;13.57;1.75;;;6.40;99.90;;;;;;5067270;28;20127;-72
2021/03/14 06:44:34;;;;;;;23.48;2.38;;;6.40;99.90;;;;;;5074079;28;20111;-73
2021/03/14 06:47:01;;;;;;;9.05;2.38;;;6.40;99.90;;;;;;5076275;28;20033;-73
2021/03/14 06:49:28;;;;;;;14.90;2.60;;;6.40;99.90;;;;;;5074696;28;20025;-73
2021/03/14 06:51:58;;;;;;;6.63;2.28;;;6.40;99.90;;;;;;5074496;28;20393;-73
2021/03/14 06:54:49;;;;;;;15.32;3.08;;;6.50;99.90;;;;;;5067611;28;20443;-73
2021/03/14 06:57:21;;;;;;;12.90;2.33;;;6.50;99.90;;;;;;5075182;28;20036;-73
2021/03/14 06:59:52;;;;;;;18.08;3.10;;;6.60;99.90;;;;;;5073596;28;20063;-73
2021/03/14 07:02:20;;;;;;;18.63;2.55;;;6.50;99.90;;;;;;5072898;28;20029;-73
2021/03/14 07:04:50;;;;;;;14.30;3.17;;;6.50;99.90;;;;;;5073269;28;20048;-73
2021/03/14 07:07:37;;;;;;;16.95;3.10;;;6.50;99.90;;;;;;5062692;28;20029;-73
2021/03/14 07:10:14;;;;;;;11.75;2.63;;;6.60;99.90;;;;;;5073646;28;20040;-73
2021/03/14 07:12:43;;;;;;;10.50;2.63;;;6.60;99.90;;;;;;5072904;28;20017;-73
2021/03/14 07:15:23;;;;;;;17.17;3.20;;;6.60;99.90;;;;;;5072833;28;20082;-73
2021/03/14 07:17:57;;;;;;;12.35;3.45;;;6.60;99.90;;;;;;5072931;28;20389;-74
2021/03/14 07:20:26;;;;;;;14.43;2.45;;;6.60;99.90;;;;;;5071664;28;20024;-73
2021/03/14 07:23:07;;;;;;;17.73;3.40;;;6.60;99.90;;;;;;5074407;28;20035;-74
2021/03/14 07:25:35;;;;;;;15.02;4.07;;;6.70;99.90;;;;;;5067684;28;20060;-73
2021/03/14 07:28:01;;;;;;;19.15;3.50;;;6.80;99.90;;;;;;5064471;28;20039;-73
2021/03/14 07:30:28;;;;;;;11.82;2.88;;;6.90;99.90;;;;;;5068514;28;20481;-73
2021/03/14 07:32:55;;;;;;;14.00;3.93;;;7.00;99.90;;;;;;5071806;28;20036;-74
2021/03/14 07:35:22;;;;;;;17.27;4.22;;;7.10;99.90;;;;;;5074916;28;20274;-73
2021/03/14 07:37:49;;;;;;;14.82;3.22;;;7.30;99.90;;;;;;5075459;28;20028;-74
2021/03/14 07:40:19;;;;;;;9.60;3.92;;;7.30;99.90;;;;;;5070303;28;20035;-73
2021/03/14 07:42:45;;;;;;;22.20;4.45;;;7.30;99.90;;;;;;5073984;28;20033;-73
2021/03/14 07:45:13;;;;;;;16.50;4.20;;;7.30;99.90;;;;;;5072685;28;20025;-73
2021/03/14 07:47:40;;;;;;;9.55;3.20;;;7.30;99.90;;;;;;5074432;28;20389;-74
2021/03/14 07:50:29;;;;;;;10.80;3.85;;;7.30;99.90;;;;;;5072269;28;20037;-74
2021/03/14 07:53:08;;;;;;;10.98;3.35;;;7.30;99.90;;;;;;5071827;28;20492;-74
2021/03/14 07:55:33;;;;;;;;;;;7.30;99.90;;;;;;5073922;28;20029;-74
2021/03/14 07:57:59;;;;;;;10.68;3.90;;;7.30;99.90;;;;;;5067330;28;20383;-74
2021/03/14 08:00:28;;;;;;;27.00;4.10;;;7.10;99.90;;;;;;5072186;28;20499;-74
2021/03/14 08:03:05;;;;;;;16.77;3.40;;;7.20;99.90;;;;;;5071949;28;20087;-74
2021/03/14 08:05:37;;;;;;;9.52;4.03;;;7.20;99.90;;;;;;5070852;28;20097;-73
2021/03/14 08:08:23;;;;;;;11.07;3.33;;;7.30;99.90;;;;;;5066093;28;20039;-73
2021/03/14 08:10:48;;;;;;;12.25;3.50;;;7.30;99.90;;;;;;5070927;28;20048;-73
2021/03/14 08:13:16;;;;;;;19.90;6.03;;;7.30;99.90;;;;;;5069111;28;20431;-73
2021/03/14 08:15:42;;;;;;;22.80;3.60;;;7.40;99.90;;;;;;5073213;28;20026;-73
2021/03/14 08:18:33;;;;;;;9.27;3.58;;;7.40;99.90;;;;;;5073931;28;20078;-72
2021/03/14 08:20:58;;;;;;;23.67;4.13;;;7.30;99.90;;;;;;5073314;28;20032;-73
2021/03/14 08:23:43;;;;;;;14.52;5.15;;;7.50;99.90;;;;;;5071864;28;20091;-74
2021/03/14 08:26:16;;;;;;;13.52;3.45;;;7.50;99.90;;;;;;5072208;28;20032;-73
2021/03/14 08:28:55;;;;;;;14.05;4.30;;;7.60;99.90;;;;;;5072520;28;20036;-74
2021/03/14 08:31:50;;;;;;;20.42;4.53;;;7.80;99.90;;;;;;5069258;28;20024;-74
2021/03/14 08:34:30;;;;;;;10.40;3.33;;;7.80;99.90;;;;;;5068507;28;20473;-73
2021/03/14 08:36:56;;;;;;;10.15;3.75;;;7.90;99.90;;;;;;5070753;28;20035;-73
2021/03/14 08:39:27;;;;;;;13.30;3.80;;;7.80;99.90;;;;;;5072646;28;20476;-74
2021/03/14 08:41:56;;;;;;;10.38;3.97;;;7.80;99.90;;;;;;5071804;28;20043;-74
2021/03/14 08:44:46;;;;;;;24.52;4.10;;;8.00;99.90;;;;;;5069145;28;20024;-73
2021/03/14 08:47:13;;;;;;;26.35;5.47;;;8.10;99.90;;;;;;5063165;28;20068;-74
2021/03/14 08:49:47;;;;;;;9.10;3.75;;;8.20;99.90;;;;;;5072160;28;20031;-74
2021/03/14 08:52:15;;;;;;;13.52;3.03;;;8.40;99.90;;;;;;5071234;28;20115;-74
2021/03/14 08:54:43;;;;;;;12.88;3.60;;;8.40;99.90;;;;;;5060828;28;20106;-73
2021/03/14 08:57:13;;;;;;;18.35;3.35;;;8.40;99.90;;;;;;5071945;28;20493;-74
2021/03/14 08:59:52;;;;;;;11.80;2.75;;;8.50;99.90;;;;;;5063779;28;20020;-74
2021/03/14 09:02:22;;;;;;;20.75;3.00;;;8.50;99.90;;;;;;5070791;28;20260;-74
2021/03/14 09:04:48;;;;;;;9.00;2.22;;;8.20;99.90;;;;;;5070868;28;20094;-74
2021/03/14 09:07:15;;;;;;;18.35;2.95;;;8.30;99.90;;;;;;5071148;28;20021;-73
2021/03/14 09:09:41;;;;;;;16.38;2.53;;;8.30;99.90;;;;;;5072949;28;20033;-73
2021/03/14 09:12:15;;;;;;;15.48;2.33;;;8.40;99.90;;;;;;5071199;28;20020;-73
2021/03/14 09:14:43;;;;;;;18.23;2.65;;;8.40;99.90;;;;;;5052486;28;20063;-74
2021/03/14 09:17:20;;;;;;;22.80;4.30;;;8.50;99.90;;;;;;5072233;28;20024;-74
2021/03/14 09:19:48;;;;;;;10.77;2.58;;;8.40;99.90;;;;;;5072636;28;20063;-74
2021/03/14 09:22:15;;;;;;;;;;;8.40;99.90;;;;;;5070304;28;20684;-74
2021/03/14 09:24:46;;;;;;;14.45;2.35;;;8.30;99.90;;;;;;5072149;28;19939;-74
2021/03/14 09:27:20;;;;;;;14.18;2.88;;;8.30;99.90;;;;;;5068808;28;20044;-74
2021/03/14 09:29:46;;;;;;;14.02;2.28;;;8.30;99.90;;;;;;5069845;28;20043;-74
2021/03/14 09:32:21;;;;;;;14.18;2.75;;;8.20;99.90;;;;;;5068233;28;20123;-74
2021/03/14 09:34:50;;;;;;;9.50;2.25;;;8.40;99.90;;;;;;5069166;28;20079;-74
2021/03/14 09:37:27;;;;;;;7.10;1.70;;;8.40;99.90;;;;;;5070123;28;20024;-73
2021/03/14 09:40:38;;;;;;;8.40;1.88;;;8.30;99.90;;;;;;5067326;28;20025;-73
2021/03/14 09:43:23;;;;;;;5.70;1.30;;;8.20;99.90;;;;;;5070625;28;20048;-73
2021/03/14 09:45:57;;;;;;;10.57;1.20;;;7.80;99.90;;;;;;5070600;28;20035;-74
2021/03/14 09:48:27;;;;;;;4.35;0.57;;;7.40;99.90;;;;;;5070053;28;20032;-75
2021/03/14 09:50:58;;;;;;;1.00;0.30;;;7.40;99.90;;;;;;5072271;28;20024;-74
2021/03/14 09:53:40;;;;;;;1.92;0.50;;;7.40;99.90;;;;;;5070829;28;20040;-73
2021/03/14 09:56:09;;;;;;;3.17;1.45;;;7.40;99.90;;;;;;5073189;28;20039;-75
2021/03/14 09:58:35;;;;;;;3.78;0.75;;;7.20;99.90;;;;;;5070818;28;20043;-76
2021/03/14 10:01:02;;;;;;;3.05;0.73;;;7.20;99.90;;;;;;5070912;28;20029;-75
2021/03/14 10:03:33;;;;;;;7.38;0.85;;;7.10;99.90;;;;;;5071220;28;20058;-76
2021/03/14 10:06:07;;;;;;;7.65;1.50;;;7.20;99.90;;;;;;5072556;28;20422;-76
2021/03/14 10:08:38;;;;;;;5.82;1.42;;;7.30;99.90;;;;;;5070952;28;20052;-75
2021/03/14 10:11:14;;;;;;;13.25;1.83;;;7.50;99.90;;;;;;5067563;28;20107;-75
2021/03/14 10:13:44;;;;;;;17.42;2.47;;;7.80;99.90;;;;;;5071922;28;20480;-74
2021/03/14 10:16:13;;;;;;;13.70;2.00;;;7.80;99.90;;;;;;5072814;28;20025;-76
2021/03/14 10:18:39;;;;;;;14.70;2.10;;;7.90;99.90;;;;;;5071098;28;20029;-76
2021/03/14 10:21:26;;;;;;;11.65;2.00;;;8.00;99.90;;;;;;5071612;28;20039;-75
2021/03/14 10:24:12;;;;;;;20.23;2.85;;;8.10;99.90;;;;;;5057595;28;20555;-75
2021/03/14 10:26:50;;;;;;;9.05;1.83;;;8.30;99.90;;;;;;5070139;28;20500;-75
2021/03/14 10:29:16;;;;;;;11.65;2.63;;;8.40;99.90;;;;;;5072341;28;20483;-74
2021/03/14 10:31:41;;;;;;;7.82;2.25;;;8.50;99.90;;;;;;5071329;28;20048;-75
2021/03/14 10:34:08;;;;;;;9.40;1.73;;;8.50;99.90;;;;;;5070750;28;20036;-75
2021/03/14 10:36:36;;;;;;;16.77;2.05;;;8.50;99.90;;;;;;5070489;28;20540;-76
2021/03/14 10:39:05;;;;;;;5.97;1.77;;;8.60;99.90;;;;;;5070228;28;20029;-76
2021/03/14 10:41:39;;;;;;;7.70;1.90;;;8.60;99.90;;;;;;5069946;28;20037;-74
2021/03/14 10:44:05;;;;;;;15.77;2.38;;;8.70;99.90;;;;;;5070267;28;20043;-74
2021/03/14 10:46:49;;;;;;;10.00;1.30;;;8.70;99.90;;;;;;5069463;28;20029;-74
2021/03/14 10:49:26;;;;;;;10.63;2.15;;;8.70;99.90;;;;;;5066527;28;20024;-74
2021/03/14 10:51:54;;;;;;;15.15;1.58;;;8.70;99.90;;;;;;5072081;28;20476;-75
2021/03/14 10:54:20;;;;;;;5.78;1.65;;;8.70;99.90;;;;;;5069046;28;20017;-74
2021/03/14 10:56:48;;;;;;;4.72;1.60;;;8.60;99.90;;;;;;5069105;28;20035;-74
2021/03/14 10:59:23;;;;;;;13.48;1.63;;;8.30;99.90;;;;;;5071521;28;20029;-75
2021/03/14 11:01:53;;;;;;;15.60;2.80;;;8.20;99.90;;;;;;5070942;28;20036;-73
2021/03/14 11:04:27;;;;;;;15.00;2.15;;;8.30;99.90;;;;;;5068574;28;20052;-73
2021/03/14 11:06:53;;;;;;;16.13;2.20;;;8.30;99.90;;;;;;5073770;28;20029;-72
2021/03/14 11:09:20;;;;;;;9.10;1.90;;;8.30;99.90;;;;;;5071241;28;20032;-76
2021/03/14 11:11:48;;;;;;;14.80;2.47;;;8.20;99.90;;;;;;5071822;28;20013;-74
2021/03/14 11:14:29;;;;;;;;;;;8.20;99.90;;;;;;5070513;28;20021;-75
2021/03/14 11:17:14;;;;;;;10.50;1.50;;;8.20;99.90;;;;;;5072983;28;19908;-74
2021/03/14 11:19:50;;;;;;;13.27;2.40;;;8.30;99.90;;;;;;5069540;28;20115;-74
2021/03/14 11:22:18;;;;;;;12.73;2.47;;;8.40;99.90;;;;;;5073829;28;20025;-73
2021/03/14 11:24:45;;;;;;;9.55;2.25;;;8.40;99.90;;;;;;5070503;28;20397;-74
2021/03/14 11:27:12;;;;;;;9.77;3.05;;;8.30;99.90;;;;;;5073181;28;20477;-75
2021/03/14 11:29:38;;;;;;;10.57;2.17;;;8.40;99.90;;;;;;5072549;28;20107;-73
2021/03/14 11:32:05;;;;;;;11.05;2.33;;;8.50;99.90;;;;;;5073813;28;20139;-73
2021/03/14 11:34:32;;;;;;;6.03;1.67;;;8.70;99.90;;;;;;5072824;28;20025;-73
2021/03/14 11:36:57;;;;;;;19.95;1.85;;;8.70;99.90;;;;;;5073275;28;20051;-74
2021/03/14 11:39:24;;;;;;;13.23;2.15;;;8.70;99.90;;;;;;5071673;28;20028;-73
2021/03/14 11:41:50;;;;;;;3.80;1.65;;;8.70;99.90;;;;;;5070918;28;20021;-73
2021/03/14 11:44:15;;;;;;;10.32;1.83;;;8.50;99.90;;;;;;5073636;28;20032;-73
2021/03/14 11:46:42;;;;;;;7.95;2.50;;;8.60;99.90;;;;;;5071768;28;20492;-73
2021/03/14 11:49:08;;;;;;;9.10;2.92;;;8.70;99.90;;;;;;5073846;28;20029;-73
2021/03/14 11:51:34;;;;;;;8.95;1.75;;;8.90;99.90;;;;;;5072930;28;20029;-74
2021/03/14 11:54:00;;;;;;;8.02;1.85;;;9.10;99.90;;;;;;5072816;28;20019;-75
2021/03/14 11:56:27;;;;;;;6.55;2.38;;;9.10;99.90;;;;;;5074423;28;20024;-75
2021/03/14 11:58:53;;;;;;;11.32;1.83;;;9.20;99.90;;;;;;5073863;28;20032;-74
2021/03/14 12:01:19;;;;;;;12.32;1.77;;;9.30;99.90;;;;;;5073783;28;20017;-74
2021/03/14 12:03:45;;;;;;;7.55;1.70;;;9.30;99.90;;;;;;5072769;28;20416;-74
2021/03/14 12:06:12;;;;;;;10.30;1.92;;;9.30;99.90;;;;;;5073075;28;20384;-74
2021/03/14 12:08:39;;;;;;;8.90;1.95;;;8.90;99.90;;;;;;5073596;28;20090;-74
2021/03/14 12:11:06;;;;;;;14.00;2.17;;;8.80;99.90;;;;;;5072399;28;20025;-74
2021/03/14 12:13:36;;;;;;;10.75;1.75;;;8.90;99.90;;;;;;5073154;28;20021;-73
2021/03/14 12:16:02;;;;;;;12.32;3.25;;;8.90;99.90;;;;;;5073278;28;20021;-75
2021/03/14 12:18:29;;;;;;;20.30;2.28;;;9.10;99.90;;;;;;5073705;28;20108;-74
2021/03/14 12:20:55;;;;;;;14.95;2.63;;;9.20;99.90;;;;;;5071413;28;20012;-74
2021/03/14 12:23:22;;;;;;;15.93;1.52;;;9.30;99.90;;;;;;5073523;28;20031;-74
2021/03/14 12:25:48;;;;;;;8.65;2.35;;;9.40;99.90;;;;;;5073661;28;20021;-76
2021/03/14 12:28:14;;;;;;;10.50;1.52;;;9.40;99.90;;;;;;5072564;28;20034;-74
2021/03/14 12:30:39;;;;;;;13.80;1.77;;;9.70;99.90;;;;;;5066253;28;20119;-73
2021/03/14 12:33:05;;;;;;;11.40;1.83;;;9.60;99.90;;;;;;5068871;28;20438;-73
2021/03/14 12:35:31;;;;;;;6.07;1.45;;;9.50;99.90;;;;;;5072710;28;20036;-74
2021/03/14 12:37:57;;;;;;;20.73;2.20;;;9.70;99.90;;;;;;5072293;28;20050;-73
2021/03/14 12:40:23;;;;;;;16.05;3.05;;;9.50;99.90;;;;;;5072401;28;20119;-74
2021/03/14 12:42:48;;;;;;;11.00;1.90;;;9.60;99.90;;;;;;5071343;28;20051;-75
2021/03/14 12:45:14;;;;;;;2.75;1.23;;;9.60;99.90;;;;;;5072976;28;20028;-75
2021/03/14 12:47:40;;;;;;;17.38;1.98;;;9.60;99.90;;;;;;5073105;28;20021;-76
2021/03/14 12:50:07;;;;;;;12.65;2.63;;;9.20;99.90;;;;;;5071523;28;20496;-76
2021/03/14 12:52:34;;;;;;;10.83;2.00;;;9.00;99.90;;;;;;5070305;28;20031;-76
2021/03/14 12:55:00;;;;;;;8.15;1.85;;;9.20;99.90;;;;;;5071158;28;20464;-76
2021/03/14 12:57:26;;;;;;;20.17;1.67;;;9.00;99.90;;;;;;5070811;28;20035;-75
2021/03/14 12:59:51;;;;;;;11.77;1.48;;;9.10;99.90;;;;;;5075322;28;20471;-76